Time;durP1;ratioP1;P1;durP2;ratioP2;P2;SDS_P1;SDS_P2;PMS_P1;PMS_P2;Temp;Humidity;BMP_temperature;BMP_pressure;BME280_temperature;BME280_humidity;BME280_pressure;Samples;Min_cycle;Max_cycle;Signal;HPM_P1;HPM_P2
2024/01/26 00:01:50;;;;;;;43.42;18.70;;;9.10;99.90;;;;;;5030633;28;20056;-34
2024/01/26 00:04:15;;;;;;;43.25;18.45;;;9.20;99.90;;;;;;5024555;28;20053;-34
2024/01/26 00:06:41;;;;;;;42.60;18.13;;;9.10;99.90;;;;;;4998596;28;20057;-35
2024/01/26 00:09:11;;;;;;;44.63;19.60;;;9.20;99.90;;;;;;5024181;28;20494;-35
2024/01/26 00:11:38;;;;;;;45.08;18.73;;;9.10;99.90;;;;;;5022287;28;20049;-34
2024/01/26 00:14:05;;;;;;;39.63;18.92;;;9.20;99.90;;;;;;5029383;28;20057;-34
2024/01/26 00:16:31;;;;;;;45.70;19.23;;;9.10;99.90;;;;;;5038595;28;20162;-34
2024/01/26 00:18:56;;;;;;;43.85;19.63;;;9.20;99.90;;;;;;5028300;28;20251;-34
2024/01/26 00:21:22;;;;;;;44.03;18.45;;;9.10;99.90;;;;;;5025140;28;20115;-34
2024/01/26 00:23:49;;;;;;;40.22;18.58;;;9.10;99.90;;;;;;5021972;28;20140;-34
2024/01/26 00:26:15;;;;;;;39.83;17.23;;;9.20;99.90;;;;;;5028416;28;20148;-34
2024/01/26 00:28:41;;;;;;;41.33;17.65;;;9.20;99.90;;;;;;5028182;28;20424;-34
2024/01/26 00:31:07;;;;;;;40.42;17.63;;;9.20;99.90;;;;;;5019206;28;20379;-34
2024/01/26 00:33:36;;;;;;;37.58;16.60;;;9.30;99.90;;;;;;5033230;28;20050;-35
2024/01/26 00:36:02;;;;;;;38.90;17.65;;;9.30;99.90;;;;;;5020397;28;20203;-35
2024/01/26 00:38:28;;;;;;;37.13;18.50;;;9.30;99.90;;;;;;5020908;28;20061;-35
2024/01/26 00:40:53;;;;;;;37.15;18.10;;;9.20;99.90;;;;;;5029929;28;20088;-35
2024/01/26 00:43:19;;;;;;;39.00;18.42;;;9.20;99.90;;;;;;5033165;28;20056;-35
2024/01/26 00:45:45;;;;;;;35.85;16.35;;;9.30;99.90;;;;;;5028918;28;20045;-35
2024/01/26 00:48:11;;;;;;;37.08;17.55;;;9.30;99.90;;;;;;5023586;28;20053;-35
2024/01/26 00:50:36;;;;;;;36.47;18.88;;;9.30;99.90;;;;;;5023960;28;20056;-35
2024/01/26 00:53:03;;;;;;;35.53;16.55;;;9.30;99.90;;;;;;5025912;28;20052;-35
2024/01/26 00:55:29;;;;;;;34.15;16.67;;;9.30;99.90;;;;;;5023306;28;20107;-35
2024/01/26 00:57:58;;;;;;;38.72;18.65;;;9.30;99.90;;;;;;5027072;28;21290;-35
2024/01/26 01:00:24;;;;;;;33.25;16.73;;;9.40;99.90;;;;;;5023234;28;20176;-35
2024/01/26 01:02:53;;;;;;;32.72;16.42;;;9.30;99.90;;;;;;5023128;28;20247;-33
2024/01/26 01:05:19;;;;;;;32.92;16.63;;;9.40;99.90;;;;;;5022204;28;20048;-34
2024/01/26 01:07:45;;;;;;;33.15;16.52;;;9.30;99.90;;;;;;5023868;28;20041;-34
2024/01/26 01:10:11;;;;;;;29.75;15.70;;;9.30;99.90;;;;;;5028318;28;20499;-34
2024/01/26 01:12:43;;;;;;;32.95;16.38;;;9.30;99.90;;;;;;5029896;28;20549;-34
2024/01/26 01:15:11;;;;;;;28.02;15.02;;;9.40;99.90;;;;;;5026627;28;20042;-33
2024/01/26 01:17:41;;;;;;;28.63;14.43;;;9.40;99.90;;;;;;5030506;28;20059;-34
2024/01/26 01:20:09;;;;;;;26.27;13.80;;;9.40;99.90;;;;;;5030958;28;20302;-34
2024/01/26 01:22:35;;;;;;;27.08;14.70;;;9.40;99.90;;;;;;5028871;28;20137;-34
2024/01/26 01:25:01;;;;;;;29.92;15.27;;;9.40;99.90;;;;;;5033402;28;20076;-35
2024/01/26 01:27:27;;;;;;;25.17;14.15;;;9.40;99.90;;;;;;5029423;28;20594;-35
2024/01/26 01:29:52;;;;;;;25.83;13.82;;;9.40;99.90;;;;;;5028291;28;20056;-35
2024/01/26 01:32:18;;;;;;;23.05;12.68;;;9.40;99.90;;;;;;5030291;28;20052;-35
2024/01/26 01:34:44;;;;;;;25.35;13.75;;;9.30;99.90;;;;;;5029973;28;20045;-34
2024/01/26 01:37:09;;;;;;;23.15;12.00;;;9.40;99.90;;;;;;5028053;28;20473;-34
2024/01/26 01:39:36;;;;;;;26.05;13.32;;;9.40;99.90;;;;;;5023746;28;20056;-34
2024/01/26 01:42:03;;;;;;;21.42;12.32;;;9.40;99.90;;;;;;5026893;28;20049;-34
2024/01/26 01:44:30;;;;;;;23.33;12.75;;;9.30;99.90;;;;;;5026001;28;20048;-34
2024/01/26 01:46:56;;;;;;;21.60;12.98;;;9.40;99.90;;;;;;5025932;28;20140;-34
2024/01/26 01:49:22;;;;;;;22.15;12.10;;;9.30;99.90;;;;;;5026806;28;20067;-34
2024/01/26 01:51:52;;;;;;;20.05;11.35;;;9.40;99.90;;;;;;4992704;28;20057;-35
2024/01/26 01:54:19;;;;;;;22.77;12.48;;;9.40;99.90;;;;;;5027326;28;20547;-34
2024/01/26 01:56:46;;;;;;;21.85;11.70;;;9.50;99.90;;;;;;5028968;28;20096;-34
2024/01/26 01:59:12;;;;;;;20.10;11.75;;;9.50;99.90;;;;;;5027280;28;20062;-34
2024/01/26 02:01:37;;;;;;;19.40;11.13;;;9.50;99.90;;;;;;5028325;28;20061;-34
2024/01/26 02:04:04;;;;;;;18.52;10.85;;;9.50;99.90;;;;;;5029562;28;20384;-34
2024/01/26 02:06:30;;;;;;;19.88;11.10;;;9.40;99.90;;;;;;5026735;28;20120;-34
2024/01/26 02:08:56;;;;;;;19.15;11.55;;;9.40;99.90;;;;;;5030017;28;20059;-34
2024/01/26 02:11:23;;;;;;;19.08;11.13;;;9.40;99.90;;;;;;5009966;28;20149;-37
2024/01/26 02:13:48;;;;;;;20.27;10.93;;;9.50;99.90;;;;;;5025598;28;20107;-34
2024/01/26 02:16:14;;;;;;;18.08;11.65;;;9.50;99.90;;;;;;5027076;28;20053;-34
2024/01/26 02:18:40;;;;;;;21.38;11.90;;;9.50;99.90;;;;;;5023619;28;20064;-35
2024/01/26 02:21:06;;;;;;;18.13;10.40;;;9.40;99.90;;;;;;5030622;28;20048;-34
2024/01/26 02:23:31;;;;;;;20.58;11.77;;;9.50;99.90;;;;;;5026626;28;20053;-34
2024/01/26 02:25:57;;;;;;;18.80;11.50;;;9.50;99.90;;;;;;5028921;28;20133;-34
2024/01/26 02:28:23;;;;;;;17.08;9.85;;;9.50;99.90;;;;;;5028447;28;20080;-34
2024/01/26 02:30:49;;;;;;;18.83;11.32;;;9.50;99.90;;;;;;5029456;28;20210;-34
2024/01/26 02:33:14;;;;;;;17.88;10.13;;;9.50;99.90;;;;;;5025234;28;20128;-34
2024/01/26 02:35:40;;;;;;;18.77;11.45;;;9.50;99.90;;;;;;5029871;28;20403;-34
2024/01/26 02:38:06;;;;;;;17.83;11.38;;;9.50;99.90;;;;;;5026698;28;20116;-35
2024/01/26 02:40:31;;;;;;;20.10;10.95;;;9.40;99.90;;;;;;5029615;28;20040;-35
2024/01/26 02:42:57;;;;;;;16.88;10.75;;;9.40;99.90;;;;;;5031008;28;20057;-34
2024/01/26 02:45:26;;;;;;;16.75;10.98;;;9.40;99.90;;;;;;5027905;28;20048;-34
2024/01/26 02:47:53;;;;;;;18.02;10.52;;;9.50;99.90;;;;;;5021417;28;20136;-34
2024/01/26 02:50:19;;;;;;;18.20;11.48;;;9.50;99.90;;;;;;5033531;28;22368;-34
2024/01/26 02:52:45;;;;;;;17.15;11.25;;;9.50;99.90;;;;;;5027450;28;20057;-34
2024/01/26 02:55:10;;;;;;;18.90;10.73;;;9.40;99.90;;;;;;5022625;28;20056;-34
2024/01/26 02:57:36;;;;;;;19.13;10.82;;;9.50;99.90;;;;;;5023464;28;20459;-34
2024/01/26 03:00:04;;;;;;;16.27;10.18;;;9.50;99.90;;;;;;5025588;28;20537;-35
2024/01/26 03:02:30;;;;;;;17.48;10.65;;;9.50;99.90;;;;;;5027660;28;20223;-33
2024/01/26 03:04:55;;;;;;;18.02;10.65;;;9.50;99.90;;;;;;5027797;28;20118;-34
2024/01/26 03:07:21;;;;;;;15.35;9.48;;;9.50;99.90;;;;;;5023719;28;20053;-33
2024/01/26 03:09:47;;;;;;;16.83;9.50;;;9.60;99.90;;;;;;5030941;28;20055;-34
2024/01/26 03:12:13;;;;;;;17.52;9.35;;;9.50;99.90;;;;;;5007179;28;20045;-34
2024/01/26 03:14:38;;;;;;;16.20;9.93;;;9.60;99.90;;;;;;5024465;28;20053;-34
2024/01/26 03:17:04;;;;;;;17.52;10.00;;;9.60;99.90;;;;;;5004314;28;20119;-34
2024/01/26 03:19:35;;;;;;;19.15;10.88;;;9.70;99.90;;;;;;5030603;28;20045;-34
2024/01/26 03:22:01;;;;;;;16.10;8.43;;;9.60;99.90;;;;;;5029114;28;20111;-34
2024/01/26 03:24:27;;;;;;;20.10;11.13;;;9.70;99.90;;;;;;5023875;28;20199;-34
2024/01/26 03:26:53;;;;;;;16.83;9.48;;;9.70;99.90;;;;;;5018076;28;20045;-34
2024/01/26 03:29:19;;;;;;;20.63;10.63;;;9.70;99.90;;;;;;5026773;28;20101;-34
2024/01/26 03:31:45;;;;;;;18.35;10.73;;;9.70;99.90;;;;;;5027273;28;20137;-34
2024/01/26 03:34:11;;;;;;;19.98;10.60;;;9.70;99.90;;;;;;5022126;28;20477;-34
2024/01/26 03:36:37;;;;;;;18.23;9.85;;;9.70;99.90;;;;;;5005041;28;20053;-35
2024/01/26 03:39:03;;;;;;;18.02;8.73;;;9.70;99.90;;;;;;5024382;28;20458;-34
2024/01/26 03:41:29;;;;;;;18.17;9.95;;;9.80;99.90;;;;;;5023260;28;20049;-35
2024/01/26 03:43:55;;;;;;;19.35;10.38;;;9.70;99.90;;;;;;5024224;28;20115;-34
2024/01/26 03:46:21;;;;;;;22.00;10.10;;;9.80;99.90;;;;;;5020717;28;20056;-34
2024/01/26 03:48:47;;;;;;;15.07;8.40;;;9.80;99.90;;;;;;5027615;28;20053;-34
2024/01/26 03:51:13;;;;;;;19.50;7.93;;;9.80;99.90;;;;;;5030309;28;20634;-34
2024/01/26 03:53:39;;;;;;;12.40;8.00;;;9.90;99.90;;;;;;5019794;28;20140;-34
2024/01/26 03:56:05;;;;;;;17.45;8.45;;;9.80;99.90;;;;;;5021752;28;20430;-35
2024/01/26 03:58:31;;;;;;;15.77;9.43;;;9.90;99.90;;;;;;5026097;28;20115;-35
2024/01/26 04:00:56;;;;;;;15.38;8.60;;;9.90;99.90;;;;;;5026654;28;20431;-35
2024/01/26 04:03:22;;;;;;;18.27;9.25;;;9.90;99.90;;;;;;5022346;28;20050;-34
2024/01/26 04:05:48;;;;;;;17.10;9.38;;;9.90;99.90;;;;;;5022108;28;20111;-35
2024/01/26 04:08:14;;;;;;;17.67;9.15;;;10.00;99.90;;;;;;5002360;28;20045;-36
2024/01/26 04:10:39;;;;;;;16.88;9.35;;;10.00;99.90;;;;;;5019781;28;20053;-35
2024/01/26 04:13:06;;;;;;;16.17;10.02;;;10.00;99.90;;;;;;5022351;28;20053;-35
2024/01/26 04:15:32;;;;;;;15.18;8.30;;;10.00;99.90;;;;;;5028537;28;20057;-35
2024/01/26 04:17:57;;;;;;;18.05;10.65;;;10.10;99.90;;;;;;5025307;28;20060;-35
2024/01/26 04:20:23;;;;;;;14.15;8.32;;;10.00;99.90;;;;;;5028793;28;20609;-35
2024/01/26 04:22:49;;;;;;;16.55;9.63;;;10.00;99.90;;;;;;5030843;28;20049;-35
2024/01/26 04:25:14;;;;;;;16.85;10.75;;;10.10;99.90;;;;;;5028265;28;20044;-35
2024/01/26 04:27:40;;;;;;;18.45;11.32;;;10.10;99.90;;;;;;5025844;28;20208;-35
2024/01/26 04:30:06;;;;;;;19.38;11.95;;;10.20;99.90;;;;;;5024202;28;20096;-35
2024/01/26 04:32:32;;;;;;;20.13;10.82;;;10.10;99.90;;;;;;5020249;28;20048;-35
2024/01/26 04:34:58;;;;;;;22.55;12.15;;;10.20;99.90;;;;;;5024267;28;20999;-35
2024/01/26 04:37:23;;;;;;;20.20;11.68;;;10.20;99.90;;;;;;5024209;28;20120;-35
2024/01/26 04:39:50;;;;;;;21.30;11.98;;;10.20;99.90;;;;;;5024109;28;20095;-35
2024/01/26 04:42:16;;;;;;;17.23;10.48;;;10.20;99.90;;;;;;5016163;28;20148;-35
2024/01/26 04:44:42;;;;;;;20.70;11.35;;;10.30;99.90;;;;;;5024483;28;20058;-35
2024/01/26 04:47:08;;;;;;;19.40;11.18;;;10.30;99.90;;;;;;5021336;28;20052;-35
2024/01/26 04:49:34;;;;;;;21.45;12.88;;;10.30;99.90;;;;;;5019407;28;20136;-35
2024/01/26 04:52:01;;;;;;;16.13;10.73;;;10.30;99.90;;;;;;5034399;28;20107;-35
2024/01/26 04:54:27;;;;;;;18.27;11.30;;;10.30;99.90;;;;;;5031009;28;20052;-35
2024/01/26 04:56:53;;;;;;;18.42;11.18;;;10.30;99.90;;;;;;5022608;28;20050;-35
2024/01/26 04:59:19;;;;;;;16.92;11.20;;;10.30;99.90;;;;;;5023762;28;20132;-33
2024/01/26 05:01:44;;;;;;;18.65;11.57;;;10.30;99.90;;;;;;5022333;28;20111;-34
2024/01/26 05:04:10;;;;;;;16.92;11.45;;;10.40;99.90;;;;;;5028596;28;20053;-36
2024/01/26 05:06:36;;;;;;;19.20;11.73;;;10.30;99.90;;;;;;5023716;28;20056;-35
2024/01/26 05:09:01;;;;;;;18.80;11.55;;;10.40;99.90;;;;;;5009035;28;20123;-34
2024/01/26 05:11:27;;;;;;;20.05;12.07;;;10.50;99.90;;;;;;5027103;28;20136;-35
2024/01/26 05:13:53;;;;;;;17.55;11.50;;;10.40;99.90;;;;;;5035717;28;20072;-34
2024/01/26 05:16:18;;;;;;;19.90;11.98;;;10.40;99.90;;;;;;5022145;28;20050;-35
2024/01/26 05:18:44;;;;;;;17.58;11.02;;;10.50;99.90;;;;;;5029299;28;20064;-35
2024/01/26 05:21:10;;;;;;;18.60;10.18;;;10.40;99.90;;;;;;5023854;28;20415;-35
2024/01/26 05:23:36;;;;;;;18.65;11.48;;;10.50;99.90;;;;;;5018079;28;20466;-35
2024/01/26 05:26:01;;;;;;;18.00;11.20;;;10.40;99.90;;;;;;5019691;28;20061;-35
2024/01/26 05:28:27;;;;;;;18.70;12.23;;;10.40;99.90;;;;;;5015074;28;21895;-35
2024/01/26 05:30:53;;;;;;;18.67;11.73;;;10.40;99.90;;;;;;5024524;28;20044;-35
2024/01/26 05:33:19;;;;;;;17.85;12.07;;;10.40;99.90;;;;;;5022908;28;20049;-35
2024/01/26 05:35:45;;;;;;;18.15;11.93;;;10.40;99.90;;;;;;5019527;28;20711;-35
2024/01/26 05:38:11;;;;;;;16.75;10.88;;;10.30;99.90;;;;;;5022764;28;21295;-35
2024/01/26 05:40:37;;;;;;;18.50;11.73;;;10.40;99.90;;;;;;5021676;28;20111;-35
2024/01/26 05:43:02;;;;;;;16.02;10.10;;;10.40;99.90;;;;;;5023857;28;20511;-35
2024/01/26 05:45:28;;;;;;;18.33;11.30;;;10.30;99.90;;;;;;5016347;28;20060;-35
2024/01/26 05:47:54;;;;;;;21.45;11.38;;;10.40;99.90;;;;;;5013602;28;20054;-35
2024/01/26 05:50:21;;;;;;;19.02;11.63;;;10.30;99.90;;;;;;5011909;28;20115;-34
2024/01/26 05:52:48;;;;;;;17.30;11.00;;;10.30;99.90;;;;;;5013496;28;20054;-34
2024/01/26 05:55:14;;;;;;;16.55;10.45;;;10.40;99.90;;;;;;5020916;28;20230;-34
2024/01/26 05:57:40;;;;;;;15.80;10.02;;;10.30;99.90;;;;;;5022823;28;20053;-34
2024/01/26 06:00:07;;;;;;;14.43;10.05;;;10.40;99.90;;;;;;5026100;28;20343;-34
2024/01/26 06:02:33;;;;;;;18.80;10.80;;;10.30;99.90;;;;;;5023027;28;20100;-34
2024/01/26 06:04:58;;;;;;;18.60;9.90;;;10.40;99.90;;;;;;5021158;28;20056;-34
2024/01/26 06:07:24;;;;;;;16.15;8.95;;;10.40;99.90;;;;;;5024788;28;20107;-35
2024/01/26 06:09:50;;;;;;;15.13;6.82;;;10.40;99.90;;;;;;5021397;28;20478;-35
2024/01/26 06:12:15;;;;;;;16.15;8.27;;;10.40;99.90;;;;;;5025532;28;20057;-34
2024/01/26 06:14:41;;;;;;;14.05;8.52;;;10.40;99.90;;;;;;5021775;28;20049;-35
2024/01/26 06:17:07;;;;;;;12.73;8.45;;;10.50;99.90;;;;;;5023043;28;20377;-35
2024/01/26 06:19:33;;;;;;;11.80;7.10;;;10.50;99.90;;;;;;5005140;28;20059;-35
2024/01/26 06:21:59;;;;;;;12.02;7.07;;;10.50;99.90;;;;;;5022263;28;20060;-35
2024/01/26 06:24:25;;;;;;;15.45;7.60;;;10.50;99.90;;;;;;5021365;28;20057;-35
2024/01/26 06:26:51;;;;;;;12.05;7.53;;;10.60;99.90;;;;;;5029030;28;20494;-34
2024/01/26 06:29:17;;;;;;;12.45;7.78;;;10.50;99.90;;;;;;5020017;28;20050;-35
2024/01/26 06:31:42;;;;;;;12.85;7.28;;;10.50;99.90;;;;;;5021599;28;20060;-34
2024/01/26 06:34:08;;;;;;;12.48;7.25;;;10.60;99.90;;;;;;5020281;28;20049;-35
2024/01/26 06:36:34;;;;;;;12.02;6.40;;;10.60;99.90;;;;;;5024834;28;20045;-34
2024/01/26 06:38:59;;;;;;;13.20;7.28;;;10.50;99.90;;;;;;5027934;28;20057;-34
2024/01/26 06:41:25;;;;;;;12.23;7.15;;;10.60;99.90;;;;;;5023828;28;20525;-34
2024/01/26 06:43:51;;;;;;;11.13;6.50;;;10.60;99.90;;;;;;5027399;28;20081;-35
2024/01/26 06:46:22;;;;;;;10.20;6.28;;;10.60;99.90;;;;;;5022676;28;20088;-36
2024/01/26 06:48:48;;;;;;;9.95;6.00;;;10.60;99.90;;;;;;5026206;28;20558;-35
2024/01/26 06:51:14;;;;;;;11.63;6.25;;;10.60;99.90;;;;;;5025342;28;20052;-35
2024/01/26 06:53:40;;;;;;;10.75;6.10;;;10.60;99.90;;;;;;5027341;28;20063;-36
2024/01/26 06:56:07;;;;;;;10.60;5.80;;;10.50;99.90;;;;;;5024686;28;20411;-36
2024/01/26 06:58:33;;;;;;;10.95;6.82;;;10.60;99.90;;;;;;5028634;28;20144;-35
2024/01/26 07:00:59;;;;;;;8.80;5.63;;;10.50;99.90;;;;;;5021776;28;20598;-35
2024/01/26 07:03:25;;;;;;;9.05;5.60;;;10.50;99.90;;;;;;5025151;28;20106;-35
2024/01/26 07:05:50;;;;;;;7.80;4.97;;;10.50;99.90;;;;;;5028902;28;20055;-35
2024/01/26 07:08:16;;;;;;;8.88;5.07;;;10.50;99.90;;;;;;5032258;28;20046;-35
2024/01/26 07:10:42;;;;;;;7.75;5.30;;;10.50;99.90;;;;;;5030220;28;20137;-35
2024/01/26 07:13:08;;;;;;;7.47;4.25;;;10.50;99.90;;;;;;5031873;28;20064;-36
2024/01/26 07:15:35;;;;;;;6.75;4.35;;;10.50;99.90;;;;;;5032680;28;20049;-35
2024/01/26 07:18:01;;;;;;;7.03;4.10;;;10.60;99.90;;;;;;5035530;28;20060;-35
2024/01/26 07:20:27;;;;;;;6.20;3.95;;;10.50;99.90;;;;;;5034119;28;20350;-35
2024/01/26 07:22:52;;;;;;;6.90;4.43;;;10.50;99.90;;;;;;5031195;28;20049;-35
2024/01/26 07:25:21;;;;;;;6.20;3.70;;;10.60;99.90;;;;;;5030742;28;20041;-35
2024/01/26 07:27:47;;;;;;;7.15;4.60;;;10.50;99.90;;;;;;5032269;28;20105;-36
2024/01/26 07:30:15;;;;;;;6.93;3.22;;;10.60;99.90;;;;;;5031438;28;20057;-35
2024/01/26 07:32:41;;;;;;;6.65;4.03;;;10.50;99.90;;;;;;5022670;28;20230;-34
2024/01/26 07:35:07;;;;;;;6.35;3.83;;;10.60;99.90;;;;;;5033073;28;20156;-35
2024/01/26 07:37:33;;;;;;;5.80;3.60;;;10.50;99.90;;;;;;5032522;28;20061;-36
2024/01/26 07:40:01;;;;;;;5.95;3.50;;;10.60;99.90;;;;;;5033247;28;20053;-44
2024/01/26 07:42:27;;;;;;;5.93;3.45;;;10.60;99.90;;;;;;5031707;28;20449;-34
2024/01/26 07:44:52;;;;;;;6.68;3.70;;;10.50;99.90;;;;;;5012027;28;20221;-35
2024/01/26 07:47:20;;;;;;;6.88;4.45;;;10.50;99.90;;;;;;5030982;28;20055;-34
2024/01/26 07:49:48;;;;;;;6.38;4.05;;;10.50;99.90;;;;;;5034914;28;20516;-35
2024/01/26 07:52:14;;;;;;;7.57;4.55;;;10.60;99.90;;;;;;5029182;28;20129;-34
2024/01/26 07:54:40;;;;;;;8.00;5.10;;;10.60;99.90;;;;;;5032450;28;20049;-34
2024/01/26 07:57:05;;;;;;;8.02;4.50;;;10.60;99.90;;;;;;5031126;28;20045;-34
2024/01/26 07:59:31;;;;;;;6.90;4.20;;;10.60;99.90;;;;;;5035577;28;20144;-36
2024/01/26 08:01:57;;;;;;;8.07;4.93;;;10.60;99.90;;;;;;5032036;28;20072;-36
2024/01/26 08:04:22;;;;;;;9.02;5.22;;;10.60;99.90;;;;;;5026182;28;20049;-36
2024/01/26 08:06:48;;;;;;;8.95;4.90;;;10.50;99.90;;;;;;5024836;28;20041;-35
2024/01/26 08:09:14;;;;;;;8.93;5.45;;;10.60;99.90;;;;;;5024596;28;20071;-35
2024/01/26 08:11:39;;;;;;;9.98;5.78;;;10.60;99.90;;;;;;5004119;28;20142;-35
2024/01/26 08:14:05;;;;;;;8.23;5.57;;;10.70;99.90;;;;;;5029193;28;20084;-35
2024/01/26 08:16:31;;;;;;;9.18;5.88;;;10.70;99.90;;;;;;5026305;28;20056;-35
2024/01/26 08:18:57;;;;;;;8.40;5.25;;;10.70;99.90;;;;;;5029606;28;20563;-35
2024/01/26 08:21:22;;;;;;;10.23;6.50;;;10.70;99.90;;;;;;5028550;28;20483;-35
2024/01/26 08:23:48;;;;;;;11.93;7.00;;;10.80;99.90;;;;;;5025911;28;20047;-36
2024/01/26 08:26:14;;;;;;;9.55;6.00;;;10.70;99.90;;;;;;5026262;28;20053;-35
2024/01/26 08:28:40;;;;;;;10.27;6.65;;;10.70;99.90;;;;;;5024872;28;20045;-35
2024/01/26 08:31:06;;;;;;;10.27;6.60;;;10.80;99.90;;;;;;5027527;28;20045;-35
2024/01/26 08:33:31;;;;;;;10.35;6.65;;;10.80;99.90;;;;;;5025465;28;20068;-35
2024/01/26 08:35:57;;;;;;;10.73;6.88;;;10.80;99.90;;;;;;5028340;28;20346;-35
2024/01/26 08:38:24;;;;;;;11.93;6.90;;;10.90;99.90;;;;;;5032060;28;20053;-35
2024/01/26 08:40:49;;;;;;;11.10;7.22;;;10.80;99.90;;;;;;5032169;28;20049;-35
2024/01/26 08:43:15;;;;;;;12.98;7.47;;;10.90;99.90;;;;;;5034661;28;20335;-35
2024/01/26 08:45:41;;;;;;;10.85;7.60;;;10.80;99.90;;;;;;5019437;28;20380;-35
2024/01/26 08:48:07;;;;;;;12.32;8.18;;;10.90;99.90;;;;;;5029263;28;20407;-35
2024/01/26 08:50:33;;;;;;;11.60;7.65;;;10.90;99.90;;;;;;5028058;28;20115;-35
2024/01/26 08:52:58;;;;;;;10.63;7.00;;;11.00;99.90;;;;;;5022371;28;20044;-35
2024/01/26 08:55:24;;;;;;;13.80;8.20;;;10.90;99.90;;;;;;5026829;28;20632;-34
2024/01/26 08:57:50;;;;;;;11.05;7.18;;;10.90;99.90;;;;;;5033053;28;20182;-35
2024/01/26 09:00:19;;;;;;;11.73;6.80;;;11.00;99.90;;;;;;5026369;28;20406;-34
2024/01/26 09:02:45;;;;;;;10.65;6.45;;;11.00;99.90;;;;;;5030695;28;20046;-34
2024/01/26 09:05:11;;;;;;;11.43;7.25;;;11.00;99.90;;;;;;5032863;28;20499;-35
2024/01/26 09:07:38;;;;;;;10.30;6.53;;;11.00;99.90;;;;;;5031259;28;20056;-35
2024/01/26 09:10:05;;;;;;;7.95;4.78;;;11.00;99.90;;;;;;5029892;28;20053;-35
2024/01/26 09:12:32;;;;;;;8.05;4.55;;;10.90;99.90;;;;;;5025804;28;20498;-35
2024/01/26 09:14:58;;;;;;;7.03;3.25;;;10.70;99.90;;;;;;5026434;28;20495;-35
2024/01/26 09:17:24;;;;;;;3.25;1.85;;;10.70;99.90;;;;;;5029070;28;20060;-35
2024/01/26 09:19:50;;;;;;;5.22;1.77;;;10.50;99.90;;;;;;5026043;28;20080;-35
2024/01/26 09:22:16;;;;;;;5.43;1.30;;;10.40;99.90;;;;;;5028126;28;20615;-36
2024/01/26 09:24:42;;;;;;;2.75;1.42;;;10.30;99.90;;;;;;5026660;28;20124;-36
2024/01/26 09:27:10;;;;;;;3.70;0.40;;;9.50;99.90;;;;;;5021945;28;20056;-34
2024/01/26 09:29:36;;;;;;;3.03;0.35;;;9.00;99.90;;;;;;5031588;28;20130;-34
2024/01/26 09:32:01;;;;;;;4.78;0.40;;;8.40;99.90;;;;;;5028521;28;20057;-34
2024/01/26 09:34:27;;;;;;;2.20;0.30;;;8.30;99.90;;;;;;5027208;28;20053;-34
2024/01/26 09:36:53;;;;;;;2.65;0.40;;;8.00;99.90;;;;;;5026864;28;20064;-34
2024/01/26 09:39:19;;;;;;;1.88;0.22;;;8.00;99.90;;;;;;5025238;28;20049;-34
2024/01/26 09:41:44;;;;;;;3.10;0.40;;;7.90;99.90;;;;;;5029014;28;20053;-34
2024/01/26 09:44:10;;;;;;;3.72;0.40;;;7.90;99.90;;;;;;5035026;28;20109;-35
2024/01/26 09:46:36;;;;;;;2.63;0.60;;;7.90;99.90;;;;;;5029446;28;20530;-35
2024/01/26 09:49:05;;;;;;;5.35;0.52;;;7.90;99.90;;;;;;5033618;28;20054;-35
2024/01/26 09:51:31;;;;;;;5.93;0.50;;;7.90;99.90;;;;;;5034666;28;20049;-35
2024/01/26 09:54:01;;;;;;;3.05;0.93;;;7.90;99.90;;;;;;5028010;28;20454;-35
2024/01/26 09:56:28;;;;;;;5.18;0.40;;;7.80;99.90;;;;;;5030198;28;20042;-35
2024/01/26 09:58:54;;;;;;;2.33;0.40;;;7.80;99.90;;;;;;5033887;28;20041;-35
2024/01/26 10:01:21;;;;;;;4.40;0.43;;;7.80;99.90;;;;;;5034327;28;20060;-35
2024/01/26 10:03:50;;;;;;;4.20;0.50;;;7.80;99.90;;;;;;5027655;28;20119;-36
2024/01/26 10:06:16;;;;;;;4.40;0.73;;;7.80;99.90;;;;;;5029778;28;20468;-42
2024/01/26 10:08:42;;;;;;;10.10;1.10;;;7.90;99.90;;;;;;5028323;28;20057;-36
2024/01/26 10:11:08;;;;;;;7.38;0.77;;;7.90;99.90;;;;;;5029017;28;20049;-35
2024/01/26 10:13:34;;;;;;;8.27;0.93;;;7.90;99.90;;;;;;5026655;28;20149;-35
2024/01/26 10:16:07;;;;;;;7.30;0.73;;;8.00;99.90;;;;;;5026394;28;20057;-34
2024/01/26 10:18:45;;;;;;;8.35;1.27;;;7.90;99.90;;;;;;5029803;28;20465;-35
2024/01/26 10:21:12;;;;;;;13.35;1.20;;;7.90;99.90;;;;;;5028644;28;20151;-35
2024/01/26 10:23:38;;;;;;;9.32;1.33;;;7.90;99.90;;;;;;5030142;28;20085;-34
2024/01/26 10:26:04;;;;;;;9.55;1.25;;;7.90;99.90;;;;;;5027843;28;20056;-34
2024/01/26 10:28:30;;;;;;;7.68;0.93;;;7.90;99.90;;;;;;5034993;28;20048;-34
2024/01/26 10:30:56;;;;;;;9.10;1.30;;;7.90;99.90;;;;;;5035270;28;20536;-35
2024/01/26 10:33:23;;;;;;;12.45;1.17;;;8.00;99.90;;;;;;5029007;28;20053;-35
2024/01/26 10:35:51;;;;;;;17.85;1.70;;;8.00;99.90;;;;;;5032184;28;20113;-36
2024/01/26 10:38:17;;;;;;;9.35;1.10;;;8.00;99.90;;;;;;5038094;28;20053;-35
2024/01/26 10:40:46;;;;;;;13.77;2.20;;;8.10;99.90;;;;;;5032917;28;20116;-35
2024/01/26 10:43:12;;;;;;;7.55;1.73;;;8.10;99.90;;;;;;5036308;28;20060;-35
2024/01/26 10:45:38;;;;;;;6.07;1.00;;;8.00;99.90;;;;;;5027208;28;20045;-35
2024/01/26 10:48:09;;;;;;;12.02;1.35;;;8.00;99.90;;;;;;5023127;28;20053;-35
2024/01/26 10:50:36;;;;;;;8.70;1.63;;;8.00;99.90;;;;;;5030725;28;20052;-35
2024/01/26 10:53:04;;;;;;;7.75;1.40;;;8.00;99.90;;;;;;5029300;28;20049;-35
2024/01/26 10:55:31;;;;;;;8.82;1.88;;;8.20;99.90;;;;;;5029308;28;20041;-36
2024/01/26 10:57:57;;;;;;;9.23;1.52;;;8.40;99.90;;;;;;5035363;28;20111;-36
2024/01/26 11:00:24;;;;;;;9.48;1.20;;;8.60;99.90;;;;;;5032670;28;20045;-37
2024/01/26 11:02:50;;;;;;;8.80;1.63;;;8.60;99.90;;;;;;5027098;28;20491;-36
2024/01/26 11:05:17;;;;;;;9.25;1.45;;;8.70;99.90;;;;;;5030372;28;20067;-36
2024/01/26 11:07:44;;;;;;;10.98;1.52;;;8.70;99.90;;;;;;5027614;28;20104;-36
2024/01/26 11:10:19;;;;;;;10.63;1.40;;;8.70;99.90;;;;;;5026452;28;20049;-36
2024/01/26 11:12:45;;;;;;;10.10;1.40;;;8.60;99.90;;;;;;5032094;28;20148;-38
2024/01/26 11:15:16;;;;;;;9.80;3.28;;;8.60;99.90;;;;;;5025985;28;20485;-38
2024/01/26 11:17:44;;;;;;;9.55;1.33;;;8.60;99.90;;;;;;5030760;28;20054;-36
2024/01/26 11:20:13;;;;;;;11.52;1.58;;;8.60;99.90;;;;;;5022172;28;20111;-36
2024/01/26 11:22:38;;;;;;;13.35;2.00;;;8.60;99.90;;;;;;5034820;28;20049;-36
2024/01/26 11:25:04;;;;;;;12.98;1.70;;;8.70;99.90;;;;;;5032629;28;20119;-36
2024/01/26 11:27:30;;;;;;;9.23;2.55;;;8.70;99.90;;;;;;5030934;28;20049;-36
2024/01/26 11:29:56;;;;;;;8.38;0.93;;;8.60;99.90;;;;;;5031172;28;20147;-35
2024/01/26 11:32:23;;;;;;;8.23;1.30;;;8.60;99.90;;;;;;5023059;28;20451;-36
2024/01/26 11:35:02;;;;;;;11.05;1.63;;;8.50;99.90;;;;;;5027108;28;20130;-36
2024/01/26 11:37:29;;;;;;;8.15;1.40;;;8.50;99.90;;;;;;5036562;28;20630;-37
2024/01/26 11:39:55;;;;;;;8.98;1.70;;;8.40;99.90;;;;;;5027438;28;20052;-36
2024/01/26 11:42:23;;;;;;;9.48;1.33;;;8.40;99.90;;;;;;5019596;28;20414;-36
2024/01/26 11:45:07;;;;;;;10.00;1.33;;;8.40;99.90;;;;;;5025730;28;20058;-36
2024/01/26 11:47:33;;;;;;;11.32;1.80;;;8.40;99.90;;;;;;5022046;28;20056;-36
2024/01/26 11:49:58;;;;;;;14.10;1.98;;;8.40;99.90;;;;;;5024784;28;20494;-36
2024/01/26 11:52:24;;;;;;;6.53;1.70;;;8.30;99.90;;;;;;5026100;28;20491;-36
2024/01/26 11:54:50;;;;;;;10.98;1.80;;;8.30;99.90;;;;;;5020905;28;20064;-36
2024/01/26 11:57:17;;;;;;;12.27;1.85;;;8.30;99.90;;;;;;5016052;28;20053;-36
2024/01/26 11:59:43;;;;;;;9.85;2.13;;;8.30;99.90;;;;;;5005027;28;20115;-42
2024/01/26 12:02:08;;;;;;;7.53;1.40;;;8.30;99.90;;;;;;5022759;28;20492;-36
2024/01/26 12:04:37;;;;;;;13.60;1.67;;;8.20;99.90;;;;;;5021855;28;20144;-37
2024/01/26 12:07:03;;;;;;;10.48;1.50;;;8.20;99.90;;;;;;5018887;28;20049;-37
2024/01/26 12:09:29;;;;;;;13.80;2.15;;;8.20;99.90;;;;;;5005965;28;20407;-37
2024/01/26 12:11:55;;;;;;;12.68;1.42;;;8.30;99.90;;;;;;5026765;28;20057;-38
2024/01/26 12:14:21;;;;;;;8.35;1.90;;;8.30;99.90;;;;;;5022289;28;20068;-36
2024/01/26 12:16:46;;;;;;;9.77;1.92;;;8.20;99.90;;;;;;5024861;28;20499;-35
2024/01/26 12:19:12;;;;;;;10.02;1.95;;;8.20;99.90;;;;;;5022339;28;20061;-35
2024/01/26 12:21:38;;;;;;;10.93;1.70;;;8.20;99.90;;;;;;5022203;28;20060;-36
2024/01/26 12:24:12;;;;;;;13.95;1.95;;;8.20;99.90;;;;;;5023601;28;20134;-36
2024/01/26 12:26:38;;;;;;;11.13;2.05;;;8.10;99.90;;;;;;5024603;28;20053;-36
2024/01/26 12:29:04;;;;;;;9.23;1.35;;;8.10;99.90;;;;;;5020871;28;20046;-36
2024/01/26 12:31:33;;;;;;;8.38;1.50;;;8.10;99.90;;;;;;5024572;28;20458;-36
2024/01/26 12:33:59;;;;;;;9.02;1.42;;;8.10;99.90;;;;;;5022298;28;20055;-36
2024/01/26 12:36:31;;;;;;;9.80;1.42;;;8.10;99.90;;;;;;5023951;28;20049;-36